• Join FlightAware (Why Join?)
  • Login
  • US Flag 
07:21PM EDT


 

Airport Tracker/Info


-or-


 

Live Flight TrackerFlight Track Log ✈ EJA829P ✈ 13-Nov-2013 ✈ KTEB - KRIC

Flight Track Log - Related Links

Times and Time Zones

All times are in EST time to prevent confusion due to time zone crossing. See the EJA829P flight status page for this flight to view local times or setup timezone preferences in your user account.

Time Position Orientation Groundspeed Altitude Reporting Facility
EST Latitude Longitude Course Direction KTS MPH feet Rate Location/Type
08:40PM 40.7714 -74.1606 225° Southwest 206 237 4,800  Level New York Center
08:41PM 40.7167 -74.1833 198° South 270 311 7,800 2,760 Climbing New York TRACON
08:42PM 40.6500 -74.2333 210° Southwest 286 329 9,700 2,640 Climbing New York TRACON
08:43PM 40.5667 -74.2667 197° South 319 367 13,100 3,360 Climbing New York TRACON
08:44PM 40.4667 -74.2333 166° South 362 417 16,500 1,740 Climbing New York TRACON
08:45PM 40.3333 -74.5912 225° Southwest  Level Estimated
08:45PM 40.3478 -74.1806 161° South 376 433 17,000  Level New York Center
08:46PM 40.2625 -74.1789 179° South 378 435 17,000  Level New York Center
08:47PM 40.1531 -74.2117 193° South 382 440 17,000  Level New York Center
08:48PM 40.0500 -74.2392 192° South 391 450 17,000  Level New York Center
08:49PM 39.9567 -74.3022 207° Southwest 358 412 17,100 3,480 Climbing New York Center
08:50PM 39.8900 -74.3636 215° Southwest 358 412 24,000 2,280 Climbing New York Center
08:51PM 39.8019 -74.4511 217° Southwest 364 419 21,700  Descending New York Center
08:53PM 39.7008 -74.5856 226° Southwest 366 421 24,000 900 Climbing Washington Center
08:54PM 39.6247 -74.6836 225° Southwest 379 436 24,000  Level Washington Center
08:55PM 39.5275 -74.7764 216° Southwest 391 450 24,000  Level Washington Center
08:56PM 39.4133 -74.8447 205° Southwest 422 486 24,000  Level Washington Center
08:57PM 39.3053 -74.9156 207° Southwest 432 497 24,000  Level Washington Center
08:58PM 39.1931 -74.9864 206° Southwest 443 510 24,000  Level Washington Center
08:59PM 39.0850 -75.0542 206° Southwest 443 510 24,000  Level Washington Center
09:00PM 38.9728 -75.1244 206° Southwest 443 510 24,000  Level Washington Center
09:01PM 38.8583 -75.1944 205° Southwest 443 510 24,000  Level Washington Center
09:02PM 38.7481 -75.2617 205° Southwest 443 510 24,000  Level Washington Center
09:03PM 38.6358 -75.3339 207° Southwest 443 510 24,000  Level Washington Center
09:04PM 38.5253 -75.4033 206° Southwest 443 510 24,000  Level Washington Center
09:05PM 38.4169 -75.4725 207° Southwest 443 510 24,000  Level Washington Center
09:06PM 38.3086 -75.5389 206° Southwest 443 510 24,000  Level Washington Center
09:07PM 38.2106 -75.5892 202° Southwest 437 503 24,000  Level Washington Center
09:08PM 38.1042 -75.6603 208° Southwest 437 503 24,000 -60 Level Washington Center
09:09PM 37.9958 -75.7289 207° Southwest 437 503 23,900 -1,080 Descending Washington Center
09:10PM 37.8894 -75.7997 208° Southwest 437 503 21,900 -2,160 Descending Washington Center
09:10PM 37.8036 -75.8467 203° Southwest 416 479 20,200 -2,040 Descending Washington Center
09:11PM 37.7828 -75.8544 196° South 431 496 19,900 -2,220 Descending Washington Center
09:11PM 37.7097 -75.9042 208° Southwest 406 467 18,200 -1,800 Descending Washington Center
09:12PM 37.6847 -75.9197 206° Southwest 413 475 18,100 -1,560 Descending Washington Center
09:12PM 37.6094 -75.9614 204° Southwest 395 455 16,700 -1,740 Descending Washington Center
09:13PM 37.5886 -75.9769 211° Southwest 402 463 16,400 -720 Descending Washington Center
09:13PM 37.5175 -76.0211 206° Southwest 373 429 16,000 -420 Descending Washington Center
09:14PM 37.4944 -76.0367 208° Southwest 388 447 16,000 -120 Level Washington Center
09:14PM 37.4214 -76.0833 207° Southwest 366 421 15,900 -1,020 Descending Washington Center
09:15PM 37.4025 -76.0939 204° Southwest 378 435 15,000 -3,060 Descending Washington Center
09:15PM 37.3336 -76.1378 207° Southwest 341 392 12,800 -2,820 Descending Washington Center
09:16PM 37.3189 -76.1481 209° Southwest 363 418 12,200 -2,820 Descending Washington Center
09:16PM 37.2581 -76.1947 211° Southwest 306 352 10,000 -2,520 Descending Washington Center
09:17PM 37.2478 -76.2050 219° Southwest 339 390 9,700 -2,280 Descending Washington Center
09:17PM 37.2117 -76.2778 238° Southwest 271 312 7,700 -2,220 Descending Washington Center
09:18PM 37.2056 -76.2856 225° Southwest 298 343 7,500 -1,380 Descending Washington Center
09:19PM 37.2008 -76.3714 266° West 251 289 6,000 -780 Descending Washington Center
09:20PM 37.2147 -76.4525 282° West 243 280 6,000  Level Washington Center
09:22PM 37.2500 -76.6500 283° West 230 265 6,000  Level Potomac TRACON
09:23PM 37.2667 -76.7167 287° West 235 270 6,000  Level Potomac TRACON
09:24PM 37.2833 -76.8000 284° West 240 276 6,000  Level Potomac TRACON
09:25PM 37.2833 -76.8833 270° West 241 277 6,000  Level Potomac TRACON
09:26PM 37.2833 -76.9667 270° West 243 280 6,000 -360 Level Potomac TRACON
09:27PM 37.3000 -77.0500 284° West 247 284 5,300 -1,440 Descending Potomac TRACON
09:28PM 37.3167 -77.1333 284° West 238 274 3,100 -1,260 Descending Potomac TRACON
09:29PM 37.3500 -77.1833 310° West 200 230 3,000 -180 Descending Potomac TRACON
09:30PM 37.3667 -77.2500 287° West 177 204 2,800 -540 Descending Potomac TRACON
09:31PM 37.3833 -77.3000 293° West 191 220 2,000 -420 Descending Potomac TRACON
09:32PM 37.4000 -77.3333 302° West 115 132 2,000 -180 Level Potomac TRACON
09:33PM 37.4333 -77.3500 338° Northwest 133 153 1,700 -540 Descending Potomac TRACON
09:34PM 37.4667 -77.3333 22° Northeast 121 139 1,000 -720 Descending Potomac TRACON